Time;durP1;ratioP1;P1;durP2;ratioP2;P2;SDS_P1;SDS_P2;PMS_P1;PMS_P2;Temp;Humidity;BMP_temperature;BMP_pressure;BME280_temperature;BME280_humidity;BME280_pressure;Samples;Min_cycle;Max_cycle;Signal;HPM_P1;HPM_P2
2021/01/12 00:00:24;;;;;;;24.38;9.25;;;1.10;99.90;;;;;;4995673;28;20113;-62
2021/01/12 00:02:52;;;;;;;23.65;10.30;;;1.10;99.90;;;;;;4995453;28;20038;-62
2021/01/12 00:05:19;;;;;;;31.65;12.88;;;1.10;99.90;;;;;;4995447;28;20034;-62
2021/01/12 00:07:47;;;;;;;24.63;10.75;;;1.10;99.90;;;;;;4995504;28;20034;-62
2021/01/12 00:10:13;;;;;;;18.67;8.82;;;1.10;99.90;;;;;;4995500;28;20037;-61
2021/01/12 00:12:39;;;;;;;23.27;9.45;;;1.10;99.90;;;;;;4995424;28;20130;-61
2021/01/12 00:15:07;;;;;;;23.83;9.60;;;1.10;99.90;;;;;;4995465;28;20101;-61
2021/01/12 00:17:33;;;;;;;14.02;8.25;;;1.10;99.90;;;;;;4995578;28;20088;-62
2021/01/12 00:19:59;;;;;;;21.55;9.32;;;1.10;99.90;;;;;;4995171;28;20045;-61
2021/01/12 00:27:18;;;;;;;15.57;7.45;;;1.10;99.90;;;;;;4995018;28;20038;-62
2021/01/12 00:29:44;;;;;;;25.08;10.63;;;1.10;99.90;;;;;;4994791;28;20128;-63
2021/01/12 00:32:19;;;;;;;21.33;9.93;;;1.10;99.90;;;;;;4994583;28;20053;-63
2021/01/12 00:34:44;;;;;;;21.52;9.95;;;1.00;99.90;;;;;;4994920;28;20038;-61
2021/01/12 00:37:11;;;;;;;16.92;8.05;;;1.10;99.90;;;;;;4994859;28;20042;-61
2021/01/12 00:39:38;;;;;;;24.23;9.55;;;1.10;99.90;;;;;;4994870;28;20031;-63
2021/01/12 00:42:04;;;;;;;22.63;9.80;;;1.10;99.90;;;;;;4994955;28;20038;-61
2021/01/12 00:44:30;;;;;;;13.75;6.40;;;1.00;99.90;;;;;;4994883;28;20110;-62
2021/01/12 00:46:56;;;;;;;25.58;12.13;;;1.10;99.90;;;;;;4994549;28;20121;-62
2021/01/12 00:49:24;;;;;;;15.93;8.05;;;1.00;99.90;;;;;;4995030;28;20497;-62
2021/01/12 00:51:51;;;;;;;28.15;10.30;;;1.00;99.90;;;;;;4994888;28;20121;-62
2021/01/12 00:54:21;;;;;;;23.30;10.48;;;1.00;99.90;;;;;;4994776;28;20512;-61
2021/01/12 00:56:47;;;;;;;23.13;10.38;;;1.00;99.90;;;;;;4993680;28;20039;-62
2021/01/12 00:59:13;;;;;;;24.25;9.70;;;1.00;99.90;;;;;;4994408;28;20121;-62
2021/01/12 01:01:40;;;;;;;19.27;9.05;;;1.10;99.90;;;;;;4994815;28;20034;-62
2021/01/12 01:04:12;;;;;;;26.20;10.98;;;1.10;99.90;;;;;;4992994;28;20034;-63
2021/01/12 01:06:38;;;;;;;18.10;8.52;;;1.10;99.90;;;;;;4994656;28;20034;-62
2021/01/12 01:09:04;;;;;;;17.60;8.25;;;1.10;99.90;;;;;;4994184;28;20041;-62
2021/01/12 01:11:30;;;;;;;23.70;10.82;;;1.00;99.90;;;;;;4994200;28;20038;-62
2021/01/12 01:13:57;;;;;;;20.48;9.23;;;1.10;99.90;;;;;;4993213;28;20383;-62
2021/01/12 01:16:34;;;;;;;21.95;10.30;;;1.00;99.90;;;;;;4994244;28;20030;-62
2021/01/12 01:19:00;;;;;;;29.05;10.27;;;1.10;99.90;;;;;;4993871;28;20034;-62
2021/01/12 01:21:26;;;;;;;20.80;10.07;;;1.10;99.90;;;;;;4994161;28;20038;-62
2021/01/12 01:23:52;;;;;;;17.42;8.60;;;1.10;99.90;;;;;;4994359;28;20058;-62
2021/01/12 01:26:19;;;;;;;21.67;9.07;;;1.00;99.90;;;;;;4993889;28;20058;-62
2021/01/12 01:28:45;;;;;;;21.60;10.40;;;1.10;99.90;;;;;;4993884;28;20022;-62
2021/01/12 01:31:11;;;;;;;23.88;11.90;;;1.00;99.90;;;;;;4993783;28;20114;-62
2021/01/12 01:33:37;;;;;;;15.60;7.70;;;1.00;99.90;;;;;;4993515;28;20046;-62
2021/01/12 01:36:08;;;;;;;12.38;6.55;;;1.00;99.90;;;;;;4993984;28;20120;-61
2021/01/12 01:38:34;;;;;;;27.80;11.90;;;1.00;99.90;;;;;;4994172;28;20034;-62
2021/01/12 01:41:00;;;;;;;23.77;10.30;;;1.00;99.90;;;;;;4993822;28;20121;-61
2021/01/12 01:43:26;;;;;;;25.10;11.32;;;1.00;99.90;;;;;;4993571;28;20054;-62
2021/01/12 01:45:52;;;;;;;27.15;11.05;;;1.10;99.90;;;;;;4993654;28;20067;-62
2021/01/12 01:48:20;;;;;;;22.02;8.98;;;1.10;99.90;;;;;;4992529;28;20034;-62
2021/01/12 01:50:46;;;;;;;22.25;9.52;;;1.10;99.90;;;;;;4992404;28;20084;-61
2021/01/12 01:53:13;;;;;;;26.42;11.50;;;1.10;99.90;;;;;;4992100;28;20061;-62
2021/01/12 01:55:40;;;;;;;21.23;9.93;;;1.00;99.90;;;;;;4993503;28;20041;-62
2021/01/12 01:58:08;;;;;;;21.60;9.48;;;1.00;99.90;;;;;;4993357;28;20034;-61
2021/01/12 02:00:36;;;;;;;20.05;9.07;;;1.10;99.90;;;;;;4992198;28;20088;-63
2021/01/12 02:03:24;;;;;;;22.83;10.25;;;1.00;99.90;;;;;;4992351;28;20039;-62
2021/01/12 02:06:02;;;;;;;23.73;9.52;;;1.00;99.90;;;;;;4992184;28;20034;-62
2021/01/12 02:09:17;;;;;;;21.13;9.50;;;1.00;99.90;;;;;;4993643;28;20026;-61
2021/01/12 02:11:52;;;;;;;29.33;10.88;;;1.00;99.90;;;;;;4993530;28;20030;-62
2021/01/12 02:14:21;;;;;;;31.33;13.00;;;1.00;99.90;;;;;;4993057;28;20038;-62
2021/01/12 02:16:50;;;;;;;21.45;9.60;;;1.00;99.90;;;;;;4991848;28;20034;-62
2021/01/12 02:19:21;;;;;;;17.85;8.20;;;1.00;99.90;;;;;;4991789;28;20026;-62
2021/01/12 02:21:58;;;;;;;25.48;11.38;;;1.00;99.90;;;;;;4993134;28;20058;-62
2021/01/12 02:24:25;;;;;;;19.73;9.23;;;1.00;99.90;;;;;;4991960;28;20039;-62
2021/01/12 02:26:50;;;;;;;27.45;11.63;;;1.00;99.90;;;;;;4991852;28;20125;-62
2021/01/12 02:29:16;;;;;;;20.58;9.82;;;1.00;99.90;;;;;;4992852;28;20105;-62
2021/01/12 02:31:43;;;;;;;23.27;9.27;;;1.10;99.90;;;;;;4992576;28;20057;-61
2021/01/12 02:34:16;;;;;;;20.77;7.13;;;1.10;99.90;;;;;;4992845;28;20114;-61
2021/01/12 02:36:43;;;;;;;20.63;9.10;;;1.10;99.90;;;;;;4991619;28;20044;-62
2021/01/12 02:39:14;;;;;;;23.95;11.75;;;1.00;99.90;;;;;;4991891;28;20027;-62
2021/01/12 02:41:41;;;;;;;14.67;7.00;;;1.00;99.90;;;;;;4993084;28;20085;-62
2021/01/12 02:44:19;;;;;;;28.10;11.45;;;1.00;99.90;;;;;;4974374;28;20022;-62
2021/01/12 02:46:45;;;;;;;23.27;8.98;;;1.00;99.90;;;;;;4991929;28;20031;-62
2021/01/12 02:49:11;;;;;;;11.35;7.35;;;1.00;99.90;;;;;;4992858;28;20034;-62
2021/01/12 02:51:37;;;;;;;27.00;10.63;;;1.00;99.90;;;;;;4992612;28;20061;-63
2021/01/12 02:54:03;;;;;;;22.33;9.48;;;1.00;99.90;;;;;;4992833;28;20127;-62
2021/01/12 02:56:29;;;;;;;20.17;9.82;;;1.00;99.90;;;;;;4992697;28;20062;-61
2021/01/12 02:58:55;;;;;;;20.67;9.02;;;1.00;99.90;;;;;;4992685;28;20092;-62
2021/01/12 03:01:22;;;;;;;20.42;10.13;;;1.00;99.90;;;;;;4992561;28;20042;-61
2021/01/12 03:03:48;;;;;;;24.30;10.57;;;1.00;99.90;;;;;;4992576;28;20092;-61
2021/01/12 03:06:13;;;;;;;20.05;9.40;;;1.10;99.90;;;;;;4992440;28;20038;-62
2021/01/12 03:08:39;;;;;;;17.30;8.27;;;1.00;99.90;;;;;;4992623;28;20037;-63
2021/01/12 03:11:05;;;;;;;28.40;12.13;;;1.00;99.90;;;;;;4992543;28;20042;-63
2021/01/12 03:13:31;;;;;;;20.90;7.72;;;1.00;99.90;;;;;;4992698;28;20034;-61
2021/01/12 03:15:57;;;;;;;17.85;8.75;;;1.00;99.90;;;;;;4992511;28;20108;-62
2021/01/12 03:18:23;;;;;;;26.77;11.70;;;1.00;99.90;;;;;;4992580;28;20034;-62
2021/01/12 03:20:49;;;;;;;17.95;8.68;;;1.00;99.90;;;;;;4992708;28;20030;-62
2021/01/12 03:23:15;;;;;;;26.45;9.38;;;1.00;99.90;;;;;;4992429;28;20033;-62
2021/01/12 03:25:41;;;;;;;15.45;7.60;;;1.00;99.90;;;;;;4992689;28;20038;-62
2021/01/12 03:28:07;;;;;;;19.33;10.07;;;1.10;99.90;;;;;;4992244;28;20100;-62
2021/01/12 03:30:33;;;;;;;14.73;6.97;;;1.10;99.90;;;;;;4992220;28;20034;-61
2021/01/12 03:32:59;;;;;;;16.80;8.40;;;1.10;99.90;;;;;;4992249;28;20066;-62
2021/01/12 03:35:25;;;;;;;23.38;11.20;;;1.10;99.90;;;;;;4990905;28;20073;-61
2021/01/12 03:37:51;;;;;;;16.42;6.38;;;1.10;99.90;;;;;;4992181;28;20030;-62
2021/01/12 03:40:17;;;;;;;20.90;9.32;;;1.10;99.90;;;;;;4992401;28;20034;-62
2021/01/12 03:42:43;;;;;;;26.60;9.68;;;1.10;99.90;;;;;;4992291;28;20081;-62
2021/01/12 03:45:09;;;;;;;21.13;9.05;;;1.10;99.90;;;;;;4992400;28;20031;-63
2021/01/12 03:47:36;;;;;;;16.65;7.95;;;1.10;99.90;;;;;;4992501;28;20042;-61
2021/01/12 03:50:04;;;;;;;20.60;8.57;;;1.10;99.90;;;;;;4992179;28;20030;-61
2021/01/12 03:52:30;;;;;;;18.98;9.45;;;1.10;99.90;;;;;;4992121;28;20042;-61
2021/01/12 03:54:56;;;;;;;20.15;9.35;;;1.10;99.90;;;;;;4993199;28;20049;-62
2021/01/12 03:57:22;;;;;;;16.33;8.63;;;1.10;99.90;;;;;;4995689;28;20066;-61
2021/01/12 03:59:48;;;;;;;21.83;8.20;;;1.10;99.90;;;;;;4995699;28;20029;-62
2021/01/12 04:02:14;;;;;;;22.08;9.68;;;1.10;99.90;;;;;;4995646;28;20030;-61
2021/01/12 04:04:40;;;;;;;25.67;11.27;;;1.10;99.90;;;;;;4995591;28;20091;-62
2021/01/12 04:07:06;;;;;;;23.77;10.07;;;1.10;99.90;;;;;;4995474;28;20065;-62
2021/01/12 04:09:35;;;;;;;22.13;10.15;;;1.20;99.90;;;;;;4995750;28;20046;-61
2021/01/12 04:12:01;;;;;;;22.30;10.23;;;1.10;99.90;;;;;;4995496;28;20039;-61
2021/01/12 04:14:27;;;;;;;25.73;11.05;;;1.10;99.90;;;;;;4995334;28;20030;-62
2021/01/12 04:16:53;;;;;;;17.80;8.90;;;1.10;99.90;;;;;;4995594;28;20041;-62
2021/01/12 04:19:18;;;;;;;24.30;10.13;;;1.10;99.90;;;;;;4995355;28;20169;-62
2021/01/12 04:21:44;;;;;;;19.02;8.25;;;1.10;99.90;;;;;;4995180;28;20056;-62
2021/01/12 04:24:10;;;;;;;17.33;9.30;;;1.10;99.90;;;;;;4995118;28;20044;-61
2021/01/12 04:26:36;;;;;;;15.75;6.05;;;1.10;99.90;;;;;;4995422;28;20035;-62
2021/01/12 04:29:03;;;;;;;19.55;8.35;;;1.10;99.90;;;;;;4995319;28;20030;-61
2021/01/12 04:31:30;;;;;;;16.55;6.70;;;1.10;99.90;;;;;;4994691;28;20034;-62
2021/01/12 04:33:56;;;;;;;13.57;6.07;;;1.10;99.90;;;;;;4995283;28;20039;-61
2021/01/12 04:36:22;;;;;;;18.67;8.45;;;1.10;99.90;;;;;;4995101;28;20026;-61
2021/01/12 04:38:48;;;;;;;23.73;8.95;;;1.10;99.90;;;;;;4995191;28;20026;-61
2021/01/12 04:41:16;;;;;;;23.45;9.52;;;1.10;99.90;;;;;;4995124;28;20038;-63
2021/01/12 04:43:42;;;;;;;17.02;8.50;;;1.10;99.90;;;;;;4995042;28;20073;-61
2021/01/12 04:46:08;;;;;;;17.02;7.78;;;1.10;99.90;;;;;;4966847;28;20138;-63
2021/01/12 04:48:34;;;;;;;12.50;5.80;;;1.10;99.90;;;;;;4994686;28;20109;-62
2021/01/12 04:51:06;;;;;;;23.63;11.00;;;1.10;99.90;;;;;;4986640;28;20444;-62
2021/01/12 04:53:47;;;;;;;20.85;10.35;;;1.00;99.90;;;;;;4994757;28;20054;-61
2021/01/12 04:56:18;;;;;;;17.30;8.32;;;1.10;99.90;;;;;;4994456;28;20027;-62
2021/01/12 04:58:46;;;;;;;19.17;9.90;;;1.10;99.90;;;;;;4994196;28;20129;-61
2021/01/12 05:01:19;;;;;;;17.45;8.57;;;1.00;99.90;;;;;;4994362;28;20026;-60
2021/01/12 05:03:50;;;;;;;23.45;10.02;;;1.00;99.90;;;;;;4994738;28;20110;-60
2021/01/12 05:06:20;;;;;;;22.85;9.40;;;0.90;99.90;;;;;;4993786;28;20125;-59
2021/01/12 05:08:55;;;;;;;29.05;13.02;;;0.90;99.90;;;;;;4994572;28;20076;-60
2021/01/12 05:11:32;;;;;;;18.33;9.00;;;0.80;99.90;;;;;;4994197;28;20090;-60
2021/01/12 05:14:08;;;;;;;20.90;6.82;;;0.90;99.90;;;;;;4994335;28;20035;-61
2021/01/12 05:16:52;;;;;;;26.52;10.10;;;0.90;99.90;;;;;;4994311;28;20030;-59
2021/01/12 05:19:24;;;;;;;33.88;13.10;;;0.80;99.90;;;;;;4994114;28;20153;-60
2021/01/12 05:21:50;;;;;;;23.15;10.20;;;0.80;99.90;;;;;;4994364;28;20060;-63
2021/01/12 05:24:20;;;;;;;26.67;8.38;;;0.70;99.90;;;;;;4994237;28;20042;-61
2021/01/12 05:26:47;;;;;;;26.88;11.75;;;0.70;99.90;;;;;;4994285;28;20113;-60
2021/01/12 05:29:14;;;;;;;17.80;7.50;;;0.70;99.90;;;;;;4993714;28;20030;-60
2021/01/12 05:31:47;;;;;;;27.98;11.75;;;0.70;99.90;;;;;;4993851;28;20026;-60
2021/01/12 05:34:17;;;;;;;29.42;12.38;;;0.70;99.90;;;;;;4993984;28;20030;-60
2021/01/12 05:36:51;;;;;;;25.52;9.75;;;0.70;99.90;;;;;;4993953;28;20037;-61
2021/01/12 05:39:20;;;;;;;24.35;9.05;;;0.70;99.90;;;;;;4994020;28;20042;-60
2021/01/12 05:41:51;;;;;;;25.55;10.05;;;0.70;99.90;;;;;;4993843;28;20026;-62
2021/01/12 05:44:20;;;;;;;12.23;6.03;;;0.80;99.90;;;;;;4993481;28;20040;-60
2021/01/12 05:46:49;;;;;;;22.52;9.43;;;0.80;99.90;;;;;;4993849;28;20088;-62
2021/01/12 05:49:22;;;;;;;27.17;9.07;;;0.80;99.90;;;;;;4993399;28;20034;-60
2021/01/12 05:51:50;;;;;;;25.25;10.80;;;0.80;99.90;;;;;;4993622;28;20038;-62
2021/01/12 05:54:36;;;;;;;21.58;9.23;;;0.80;99.90;;;;;;4993350;28;20125;-59
2021/01/12 05:57:05;;;;;;;16.83;9.35;;;0.90;99.90;;;;;;4992221;28;20077;-57
2021/01/12 05:59:38;;;;;;;22.75;9.55;;;0.90;99.90;;;;;;4972600;28;20038;-59
2021/01/12 06:02:09;;;;;;;21.60;9.57;;;0.90;99.90;;;;;;5013216;28;20036;-59
2021/01/12 06:04:37;;;;;;;20.30;10.73;;;0.90;99.90;;;;;;5013009;28;20026;-59
2021/01/12 06:07:04;;;;;;;27.73;10.82;;;0.90;99.90;;;;;;5011372;28;20042;-58
2021/01/12 06:09:30;;;;;;;20.27;9.55;;;1.00;99.90;;;;;;5011394;28;20080;-56
2021/01/12 06:11:57;;;;;;;24.90;10.88;;;1.00;99.90;;;;;;5012504;28;20030;-58
2021/01/12 06:14:26;;;;;;;14.18;7.30;;;1.00;99.90;;;;;;5012871;28;20033;-58
2021/01/12 06:16:54;;;;;;;22.17;9.98;;;1.00;99.90;;;;;;5012865;28;20030;-58
2021/01/12 06:19:22;;;;;;;25.13;9.65;;;1.00;99.90;;;;;;5012567;28;20117;-58
2021/01/12 06:21:54;;;;;;;20.02;9.13;;;1.00;99.90;;;;;;5002534;28;20037;-58
2021/01/12 06:24:38;;;;;;;16.13;8.07;;;1.00;99.90;;;;;;4992896;28;20041;-57
2021/01/12 06:27:18;;;;;;;15.32;9.15;;;1.00;99.90;;;;;;4993225;28;20097;-59
2021/01/12 06:29:49;;;;;;;22.08;9.35;;;1.00;99.90;;;;;;4992966;28;20030;-58
2021/01/12 06:32:16;;;;;;;24.25;10.23;;;1.00;99.90;;;;;;4992629;28;20054;-58
2021/01/12 06:34:42;;;;;;;17.73;6.93;;;1.00;99.90;;;;;;4993014;28;20121;-57
2021/01/12 06:37:12;;;;;;;21.55;10.07;;;1.10;99.90;;;;;;4992715;28;20041;-59
2021/01/12 06:39:57;;;;;;;23.02;10.50;;;1.10;99.90;;;;;;4992947;28;20031;-59
2021/01/12 06:42:27;;;;;;;25.77;9.52;;;1.10;99.90;;;;;;4991581;28;20102;-58
2021/01/12 06:44:56;;;;;;;18.17;9.35;;;1.10;99.90;;;;;;4992612;28;20073;-58
2021/01/12 06:47:28;;;;;;;21.80;8.88;;;1.00;99.90;;;;;;4992796;28;20050;-59
2021/01/12 06:50:18;;;;;;;25.60;11.27;;;1.10;99.90;;;;;;4992927;28;20038;-59
2021/01/12 06:52:50;;;;;;;21.13;9.75;;;1.10;99.90;;;;;;5001312;28;20042;-57
2021/01/12 06:55:18;;;;;;;15.88;6.38;;;1.10;99.90;;;;;;4991246;28;20045;-58
2021/01/12 06:57:49;;;;;;;16.00;6.93;;;1.20;99.90;;;;;;4991838;28;20034;-55
2021/01/12 07:00:22;;;;;;;22.17;9.33;;;1.20;99.90;;;;;;4991294;28;20109;-59
2021/01/12 07:02:59;;;;;;;24.45;9.70;;;1.20;99.90;;;;;;4991261;28;20031;-60
2021/01/12 07:05:47;;;;;;;24.40;9.27;;;1.20;99.90;;;;;;4991379;28;20045;-60
2021/01/12 07:08:13;;;;;;;15.68;7.78;;;1.20;99.90;;;;;;4990744;28;20039;-60
2021/01/12 07:10:43;;;;;;;21.52;10.02;;;1.30;99.90;;;;;;4990604;28;20069;-57
2021/01/12 07:13:09;;;;;;;18.35;7.50;;;1.30;99.90;;;;;;4991474;28;20172;-58
2021/01/12 07:15:46;;;;;;;20.17;8.93;;;1.30;99.90;;;;;;4992562;28;20049;-55
2021/01/12 07:18:12;;;;;;;22.42;9.15;;;1.20;99.90;;;;;;4992533;28;20066;-60
2021/01/12 07:20:40;;;;;;;22.75;10.93;;;1.30;99.90;;;;;;4992893;28;20034;-57
2021/01/12 07:23:11;;;;;;;20.42;8.15;;;1.30;99.90;;;;;;5011726;28;20033;-58
2021/01/12 07:25:43;;;;;;;19.40;7.77;;;1.30;99.90;;;;;;4975863;28;20027;-58
2021/01/12 07:28:20;;;;;;;24.60;9.52;;;1.30;99.90;;;;;;4972230;28;20337;-60
2021/01/12 07:30:49;;;;;;;23.35;10.75;;;1.30;99.90;;;;;;4975170;28;20121;-59
2021/01/12 07:33:23;;;;;;;18.73;8.60;;;1.30;99.90;;;;;;4995575;28;20073;-58
2021/01/12 07:35:52;;;;;;;21.13;9.02;;;1.30;99.90;;;;;;4996178;28;20097;-61
2021/01/12 07:38:23;;;;;;;23.77;10.07;;;1.30;99.90;;;;;;4995682;28;20089;-60
2021/01/12 07:40:54;;;;;;;21.48;9.88;;;1.30;99.90;;;;;;4996433;28;20122;-60
2021/01/12 07:43:22;;;;;;;17.97;8.23;;;1.30;99.90;;;;;;4995808;28;20076;-61
2021/01/12 07:45:52;;;;;;;12.90;6.68;;;1.30;99.90;;;;;;4996166;28;20113;-58
2021/01/12 07:48:18;;;;;;;16.23;6.55;;;1.40;99.90;;;;;;4995796;28;20032;-54
2021/01/12 07:50:47;;;;;;;18.15;7.93;;;1.40;99.90;;;;;;4997109;28;20034;-58
2021/01/12 07:53:13;;;;;;;16.52;8.38;;;1.40;99.90;;;;;;5015296;28;20065;-59
2021/01/12 07:55:41;;;;;;;20.38;8.63;;;1.40;99.90;;;;;;5015173;28;20041;-57
2021/01/12 07:58:09;;;;;;;14.15;6.05;;;1.40;99.90;;;;;;5014015;28;20433;-59
2021/01/12 08:00:35;;;;;;;16.10;7.18;;;1.40;99.90;;;;;;5015067;28;20040;-60
2021/01/12 08:03:02;;;;;;;12.70;5.60;;;1.40;99.90;;;;;;5015132;28;20120;-59
2021/01/12 08:05:28;;;;;;;16.88;8.23;;;1.40;99.90;;;;;;5015169;28;20029;-57
2021/01/12 08:08:06;;;;;;;14.85;7.53;;;1.40;99.90;;;;;;5015195;28;20053;-59
2021/01/12 08:10:36;;;;;;;17.35;7.80;;;1.40;99.90;;;;;;5014991;28;20030;-59
2021/01/12 08:13:14;;;;;;;16.35;6.97;;;1.40;99.90;;;;;;5014955;28;20065;-58
2021/01/12 08:15:43;;;;;;;12.80;4.88;;;1.40;99.90;;;;;;5014835;28;20038;-59
2021/01/12 08:18:19;;;;;;;12.52;5.80;;;1.40;99.90;;;;;;5014894;28;20121;-58
2021/01/12 08:20:53;;;;;;;14.73;7.30;;;1.40;99.90;;;;;;5013223;28;20034;-60
2021/01/12 08:23:20;;;;;;;10.57;5.22;;;1.40;99.90;;;;;;4995397;28;20026;-60
2021/01/12 08:25:46;;;;;;;12.48;5.65;;;1.40;99.90;;;;;;4995168;28;20043;-59
2021/01/12 08:28:13;;;;;;;13.07;6.50;;;1.50;99.90;;;;;;4995089;28;20030;-60
2021/01/12 08:30:41;;;;;;;9.40;4.63;;;1.40;99.90;;;;;;4995199;28;20105;-59
2021/01/12 08:33:29;;;;;;;14.30;5.97;;;1.50;99.90;;;;;;4994907;28;20050;-59
2021/01/12 08:36:08;;;;;;;10.05;4.95;;;1.40;99.90;;;;;;4995245;28;20038;-60
2021/01/12 08:38:34;;;;;;;11.57;5.32;;;1.50;99.90;;;;;;4993879;28;20030;-59
2021/01/12 08:41:05;;;;;;;14.05;7.20;;;1.50;99.90;;;;;;4993012;28;20057;-59
2021/01/12 08:43:32;;;;;;;13.18;5.20;;;1.40;99.90;;;;;;4993454;28;20058;-59
2021/01/12 08:46:01;;;;;;;14.10;6.97;;;1.50;99.90;;;;;;4994858;28;20092;-56
2021/01/12 08:48:27;;;;;;;12.35;6.40;;;1.50;99.90;;;;;;4994534;28;20034;-60
2021/01/12 08:50:53;;;;;;;12.85;6.43;;;1.50;99.90;;;;;;4997258;28;20120;-58
2021/01/12 08:53:31;;;;;;;7.55;3.63;;;1.50;99.90;;;;;;5014168;28;20030;-60
2021/01/12 08:56:09;;;;;;;13.73;7.28;;;1.50;99.90;;;;;;5014245;28;20030;-57
2021/01/12 08:58:37;;;;;;;8.82;4.85;;;1.50;99.90;;;;;;5013960;28;20137;-60
2021/01/12 09:01:04;;;;;;;8.82;4.95;;;1.50;99.90;;;;;;5014113;28;20026;-59
2021/01/12 09:03:31;;;;;;;13.63;6.88;;;1.50;99.90;;;;;;5014186;28;20033;-61
2021/01/12 09:05:57;;;;;;;9.60;5.00;;;1.60;99.90;;;;;;5014231;28;20026;-58
2021/01/12 09:08:26;;;;;;;9.32;5.18;;;1.50;99.90;;;;;;5013887;28;20116;-60
2021/01/12 09:10:53;;;;;;;14.77;5.55;;;1.60;99.90;;;;;;5014138;28;20034;-58
2021/01/12 09:13:27;;;;;;;12.82;5.47;;;1.60;99.90;;;;;;5012972;28;20033;-59
2021/01/12 09:15:53;;;;;;;10.50;5.15;;;1.60;99.90;;;;;;5014014;28;20025;-57
2021/01/12 09:18:24;;;;;;;9.77;5.30;;;1.60;99.90;;;;;;5013612;28;20068;-58
2021/01/12 09:20:57;;;;;;;7.32;4.22;;;1.60;99.90;;;;;;5011661;28;20030;-59
2021/01/12 09:23:24;;;;;;;7.50;3.65;;;1.60;99.90;;;;;;4994269;28;20041;-59
2021/01/12 09:25:53;;;;;;;8.18;4.45;;;1.70;99.90;;;;;;4996372;28;20034;-56
2021/01/12 09:28:28;;;;;;;7.57;3.63;;;1.70;99.90;;;;;;4994181;28;20028;-58
2021/01/12 09:31:13;;;;;;;7.15;3.10;;;1.70;99.90;;;;;;4993913;28;20030;-59
2021/01/12 09:33:45;;;;;;;10.55;4.28;;;1.80;99.90;;;;;;4992600;28;20057;-56
2021/01/12 09:36:14;;;;;;;8.40;4.07;;;1.70;99.90;;;;;;4993803;28;20038;-56
2021/01/12 09:38:46;;;;;;;10.50;4.72;;;1.70;99.90;;;;;;4993586;28;20061;-56
2021/01/12 09:41:14;;;;;;;6.30;3.03;;;1.80;99.90;;;;;;4993767;28;20114;-57
2021/01/12 09:43:42;;;;;;;9.88;4.72;;;1.80;99.90;;;;;;4993904;28;20049;-58
2021/01/12 09:46:09;;;;;;;6.00;3.30;;;1.80;99.90;;;;;;4993723;28;20080;-56
2021/01/12 09:48:36;;;;;;;5.03;3.28;;;1.80;99.90;;;;;;4993522;28;20056;-58
2021/01/12 09:51:04;;;;;;;3.95;2.20;;;1.80;99.90;;;;;;4997468;28;20037;-59
2021/01/12 09:53:30;;;;;;;7.68;3.00;;;1.80;99.90;;;;;;5011562;28;20041;-56
2021/01/12 09:55:57;;;;;;;7.20;3.65;;;1.80;99.90;;;;;;5013366;28;20029;-55
2021/01/12 09:58:23;;;;;;;3.63;2.38;;;1.80;99.90;;;;;;5013162;28;20113;-57
2021/01/12 10:00:49;;;;;;;8.75;3.17;;;1.90;99.90;;;;;;5012927;28;20072;-57
2021/01/12 10:03:15;;;;;;;7.25;3.00;;;1.90;99.90;;;;;;5013209;28;20026;-55
2021/01/12 10:05:41;;;;;;;8.27;3.70;;;1.90;99.90;;;;;;5012942;28;20040;-57
2021/01/12 10:08:08;;;;;;;7.80;3.50;;;1.90;99.90;;;;;;5012757;28;20133;-55
2021/01/12 10:10:35;;;;;;;6.38;3.17;;;1.90;99.90;;;;;;5012765;28;20038;-56
2021/01/12 10:13:02;;;;;;;7.70;3.95;;;1.90;99.90;;;;;;5013023;28;20026;-59
2021/01/12 10:15:28;;;;;;;6.72;3.15;;;1.90;99.90;;;;;;5013026;28;20026;-55
2021/01/12 10:17:54;;;;;;;5.18;2.78;;;2.00;99.90;;;;;;5012004;28;20052;-54
2021/01/12 10:20:21;;;;;;;5.82;3.00;;;2.00;99.90;;;;;;5012512;28;20034;-56
2021/01/12 10:22:47;;;;;;;6.63;3.10;;;2.00;99.90;;;;;;4994081;28;20042;-57
2021/01/12 10:25:14;;;;;;;6.80;3.03;;;2.00;99.90;;;;;;4993190;28;20038;-57
2021/01/12 10:27:41;;;;;;;5.78;2.55;;;2.00;99.90;;;;;;4991877;28;20027;-58
2021/01/12 10:30:11;;;;;;;5.90;2.95;;;2.10;99.90;;;;;;4991649;28;20030;-55
2021/01/12 10:32:37;;;;;;;5.15;2.85;;;2.10;99.90;;;;;;4992462;28;20089;-55
2021/01/12 10:35:05;;;;;;;3.40;1.90;;;2.10;99.90;;;;;;4993046;28;20065;-60
2021/01/12 10:37:31;;;;;;;5.72;2.92;;;2.20;99.90;;;;;;4992692;28;20124;-59
2021/01/12 10:39:58;;;;;;;3.75;1.95;;;2.20;99.90;;;;;;4992809;28;20031;-59
2021/01/12 10:42:24;;;;;;;6.15;2.17;;;2.30;99.90;;;;;;4992951;28;20022;-60
2021/01/12 10:44:50;;;;;;;4.57;2.50;;;2.30;99.90;;;;;;4992835;28;20064;-56
2021/01/12 10:47:16;;;;;;;4.25;1.95;;;2.30;99.90;;;;;;4992867;28;20050;-57
2021/01/12 10:49:42;;;;;;;2.72;1.65;;;2.40;99.90;;;;;;4992858;28;20030;-57
2021/01/12 10:52:08;;;;;;;2.88;1.50;;;2.40;99.90;;;;;;5005382;28;20034;-56
2021/01/12 10:54:35;;;;;;;3.92;2.15;;;2.50;99.90;;;;;;5012264;28;20057;-57
2021/01/12 10:57:03;;;;;;;2.03;1.13;;;2.50;99.90;;;;;;5011964;28;20087;-57
2021/01/12 10:59:29;;;;;;;2.72;1.40;;;2.50;99.90;;;;;;5012129;28;20034;-56
2021/01/12 11:01:58;;;;;;;2.83;1.70;;;2.60;99.90;;;;;;5012275;28;20038;-61
2021/01/12 11:04:25;;;;;;;3.65;1.00;;;2.60;99.90;;;;;;5012058;28;20034;-57
2021/01/12 11:06:53;;;;;;;2.38;1.08;;;2.60;99.90;;;;;;5015930;28;20122;-57
2021/01/12 11:09:20;;;;;;;1.42;1.00;;;2.70;99.90;;;;;;5016213;28;20030;-58
2021/01/12 11:11:48;;;;;;;5.65;1.88;;;2.70;99.90;;;;;;5015877;28;20077;-59
2021/01/12 11:14:18;;;;;;;2.58;1.20;;;2.70;99.90;;;;;;5016274;28;20091;-55
2021/01/12 11:16:46;;;;;;;3.10;1.20;;;2.60;99.90;;;;;;5016169;28;20077;-59
2021/01/12 11:19:13;;;;;;;2.10;1.10;;;2.70;99.90;;;;;;5012921;28;20030;-58
2021/01/12 11:21:49;;;;;;;2.47;1.25;;;2.60;99.90;;;;;;5006720;28;20035;-58
2021/01/12 11:24:28;;;;;;;2.72;1.30;;;2.60;99.90;;;;;;4996255;28;20026;-60
2021/01/12 11:26:54;;;;;;;2.50;1.27;;;2.60;99.90;;;;;;5011367;28;20038;-59
2021/01/12 11:29:20;;;;;;;2.65;0.98;;;2.60;99.90;;;;;;4996186;28;20041;-59
2021/01/12 11:31:47;;;;;;;3.63;1.38;;;2.60;99.90;;;;;;4995628;28;20034;-57
2021/01/12 11:34:14;;;;;;;4.40;1.60;;;2.60;99.90;;;;;;4996007;28;20050;-58
2021/01/12 11:36:43;;;;;;;2.90;1.40;;;2.60;99.90;;;;;;4996195;28;20046;-58
2021/01/12 11:39:15;;;;;;;1.95;1.15;;;2.70;99.90;;;;;;4996232;28;20026;-58
2021/01/12 11:41:55;;;;;;;3.00;1.50;;;2.70;99.90;;;;;;4995871;28;20062;-59
2021/01/12 11:44:23;;;;;;;2.30;1.27;;;2.70;99.90;;;;;;4996031;28;20034;-57
2021/01/12 11:46:50;;;;;;;2.88;1.27;;;2.80;99.90;;;;;;4995790;28;20034;-59
2021/01/12 11:49:17;;;;;;;2.10;1.13;;;2.80;99.90;;;;;;4995782;28;20038;-59
2021/01/12 11:51:47;;;;;;;2.30;1.40;;;2.80;99.90;;;;;;5005393;28;20165;-56
2021/01/12 11:54:14;;;;;;;2.40;1.35;;;2.80;99.90;;;;;;5015718;28;20034;-58
2021/01/12 11:56:42;;;;;;;1.45;1.13;;;2.80;99.90;;;;;;5015121;28;20029;-58
2021/01/12 11:59:08;;;;;;;2.67;1.15;;;2.90;99.90;;;;;;5015269;28;20034;-58
2021/01/12 12:01:45;;;;;;;2.55;1.27;;;2.90;99.90;;;;;;5015365;28;20034;-58
2021/01/12 12:04:11;;;;;;;1.80;1.10;;;2.90;99.90;;;;;;5015361;28;20025;-58
2021/01/12 12:06:37;;;;;;;2.35;1.02;;;2.90;99.90;;;;;;5015167;28;20025;-59
2021/01/12 12:09:04;;;;;;;2.45;1.33;;;2.80;99.90;;;;;;5015174;28;20111;-59
2021/01/12 12:11:39;;;;;;;2.58;1.20;;;2.80;99.90;;;;;;5015231;28;20034;-58
2021/01/12 12:14:08;;;;;;;2.83;1.40;;;2.80;99.90;;;;;;5015319;28;20115;-59
2021/01/12 12:16:34;;;;;;;2.85;1.65;;;2.70;99.90;;;;;;5014694;28;20068;-59
2021/01/12 12:19:01;;;;;;;2.53;1.30;;;2.70;99.90;;;;;;5014784;28;20030;-57
2021/01/12 12:21:27;;;;;;;5.25;1.60;;;2.70;99.90;;;;;;5007530;28;20026;-58
2021/01/12 12:23:53;;;;;;;2.58;1.42;;;2.70;99.90;;;;;;4994885;28;20058;-57
2021/01/12 12:26:19;;;;;;;3.95;1.60;;;2.70;99.90;;;;;;4995076;28;20080;-57
2021/01/12 12:28:45;;;;;;;2.58;1.58;;;2.80;99.90;;;;;;4994915;28;20030;-58
2021/01/12 12:31:13;;;;;;;4.18;1.98;;;2.70;99.90;;;;;;4995090;28;20380;-57
2021/01/12 12:33:39;;;;;;;2.80;1.70;;;2.80;99.90;;;;;;4994574;28;20054;-59
2021/01/12 12:36:15;;;;;;;3.58;2.13;;;2.80;99.90;;;;;;4995134;28;20026;-57
2021/01/12 12:38:42;;;;;;;2.28;1.17;;;2.70;99.90;;;;;;4994679;28;20034;-58
2021/01/12 12:41:13;;;;;;;6.53;2.47;;;2.80;99.90;;;;;;4995100;28;20090;-57
2021/01/12 12:43:41;;;;;;;4.50;1.77;;;2.80;99.90;;;;;;4994014;28;20030;-56
2021/01/12 12:46:09;;;;;;;4.68;1.83;;;2.80;99.90;;;;;;4994154;28;20137;-58
2021/01/12 12:48:36;;;;;;;3.33;1.25;;;2.80;99.90;;;;;;4994377;28;20049;-58
2021/01/12 12:51:06;;;;;;;3.42;1.50;;;2.80;99.90;;;;;;4998137;28;20125;-58
2021/01/12 12:53:36;;;;;;;3.67;1.60;;;2.90;99.90;;;;;;5013903;28;20033;-58
2021/01/12 12:56:04;;;;;;;3.55;1.73;;;2.90;99.90;;;;;;5012269;28;20041;-58
2021/01/12 12:58:31;;;;;;;4.00;1.90;;;2.90;99.90;;;;;;5014257;28;20048;-60
2021/01/12 13:00:58;;;;;;;6.30;1.80;;;3.00;99.90;;;;;;5013911;28;20046;-57